sensor_id;sensor_type;location;lat;lon;timestamp;P1;durP1;ratioP1;P2;durP2;ratioP2
23078;SDS011;11707;50.830;4.364;2023-04-03T00:01:37;7.85;;;4.80;;
23078;SDS011;11707;50.830;4.364;2023-04-03T00:04:04;9.00;;;5.00;;
23078;SDS011;11707;50.830;4.364;2023-04-03T00:06:30;8.50;;;5.07;;
23078;SDS011;11707;50.830;4.364;2023-04-03T00:08:57;10.02;;;5.40;;
23078;SDS011;11707;50.830;4.364;2023-04-03T00:11:23;8.02;;;4.88;;
23078;SDS011;11707;50.830;4.364;2023-04-03T00:13:51;8.20;;;5.25;;
23078;SDS011;11707;50.830;4.364;2023-04-03T00:16:17;10.45;;;5.43;;
23078;SDS011;11707;50.830;4.364;2023-04-03T00:18:45;9.35;;;5.18;;
23078;SDS011;11707;50.830;4.364;2023-04-03T00:21:12;10.65;;;5.07;;
23078;SDS011;11707;50.830;4.364;2023-04-03T00:23:38;9.95;;;4.55;;
23078;SDS011;11707;50.830;4.364;2023-04-03T00:26:04;9.65;;;4.20;;
23078;SDS011;11707;50.830;4.364;2023-04-03T00:28:32;6.15;;;4.68;;
23078;SDS011;11707;50.830;4.364;2023-04-03T00:30:58;10.50;;;4.65;;
23078;SDS011;11707;50.830;4.364;2023-04-03T00:33:24;9.68;;;4.53;;
23078;SDS011;11707;50.830;4.364;2023-04-03T00:35:50;13.90;;;4.72;;
23078;SDS011;11707;50.830;4.364;2023-04-03T00:38:16;8.27;;;4.70;;
23078;SDS011;11707;50.830;4.364;2023-04-03T00:40:46;9.13;;;4.55;;
23078;SDS011;11707;50.830;4.364;2023-04-03T00:43:14;9.70;;;5.22;;
23078;SDS011;11707;50.830;4.364;2023-04-03T00:45:43;10.00;;;4.78;;
23078;SDS011;11707;50.830;4.364;2023-04-03T00:48:11;6.05;;;4.28;;
23078;SDS011;11707;50.830;4.364;2023-04-03T00:50:44;6.82;;;4.47;;
23078;SDS011;11707;50.830;4.364;2023-04-03T00:53:11;6.78;;;4.47;;
23078;SDS011;11707;50.830;4.364;2023-04-03T00:55:42;6.97;;;4.90;;
23078;SDS011;11707;50.830;4.364;2023-04-03T00:58:09;10.43;;;4.75;;
23078;SDS011;11707;50.830;4.364;2023-04-03T01:00:40;7.30;;;4.40;;
23078;SDS011;11707;50.830;4.364;2023-04-03T01:03:10;9.73;;;5.25;;
23078;SDS011;11707;50.830;4.364;2023-04-03T01:05:35;9.35;;;4.35;;
23078;SDS011;11707;50.830;4.364;2023-04-03T01:08:01;8.23;;;4.97;;
23078;SDS011;11707;50.830;4.364;2023-04-03T01:10:27;6.90;;;4.65;;
23078;SDS011;11707;50.830;4.364;2023-04-03T01:12:55;5.75;;;4.80;;
23078;SDS011;11707;50.830;4.364;2023-04-03T01:15:25;11.25;;;5.13;;
23078;SDS011;11707;50.830;4.364;2023-04-03T01:17:54;9.00;;;4.80;;
23078;SDS011;11707;50.830;4.364;2023-04-03T01:25:37;13.00;;;5.28;;
23078;SDS011;11707;50.830;4.364;2023-04-03T01:28:05;10.55;;;4.93;;
23078;SDS011;11707;50.830;4.364;2023-04-03T01:30:34;8.45;;;4.90;;
23078;SDS011;11707;50.830;4.364;2023-04-03T01:33:22;7.18;;;4.60;;
23078;SDS011;11707;50.830;4.364;2023-04-03T01:35:47;8.38;;;4.60;;
23078;SDS011;11707;50.830;4.364;2023-04-03T01:38:13;6.82;;;4.75;;
23078;SDS011;11707;50.830;4.364;2023-04-03T01:40:40;7.32;;;4.80;;
23078;SDS011;11707;50.830;4.364;2023-04-03T01:43:05;7.07;;;4.75;;
23078;SDS011;11707;50.830;4.364;2023-04-03T01:45:31;8.60;;;5.40;;
23078;SDS011;11707;50.830;4.364;2023-04-03T01:47:57;10.55;;;5.00;;
23078;SDS011;11707;50.830;4.364;2023-04-03T01:50:22;8.60;;;5.00;;
23078;SDS011;11707;50.830;4.364;2023-04-03T01:52:48;9.98;;;5.00;;
23078;SDS011;11707;50.830;4.364;2023-04-03T01:55:16;8.80;;;5.07;;
23078;SDS011;11707;50.830;4.364;2023-04-03T01:57:42;9.25;;;4.90;;
23078;SDS011;11707;50.830;4.364;2023-04-03T02:00:08;11.05;;;5.80;;
23078;SDS011;11707;50.830;4.364;2023-04-03T02:02:35;8.52;;;4.93;;
23078;SDS011;11707;50.830;4.364;2023-04-03T02:05:01;13.18;;;6.32;;
23078;SDS011;11707;50.830;4.364;2023-04-03T02:07:27;10.02;;;5.40;;
23078;SDS011;11707;50.830;4.364;2023-04-03T02:09:52;7.07;;;4.70;;
23078;SDS011;11707;50.830;4.364;2023-04-03T02:12:21;7.57;;;5.10;;
23078;SDS011;11707;50.830;4.364;2023-04-03T02:14:47;9.43;;;4.90;;
23078;SDS011;11707;50.830;4.364;2023-04-03T02:17:16;6.70;;;5.15;;
23078;SDS011;11707;50.830;4.364;2023-04-03T02:19:41;7.18;;;5.53;;
23078;SDS011;11707;50.830;4.364;2023-04-03T02:22:08;12.63;;;5.38;;
23078;SDS011;11707;50.830;4.364;2023-04-03T02:24:36;11.02;;;5.07;;
23078;SDS011;11707;50.830;4.364;2023-04-03T02:27:04;7.57;;;4.70;;
23078;SDS011;11707;50.830;4.364;2023-04-03T02:29:29;9.73;;;4.80;;
23078;SDS011;11707;50.830;4.364;2023-04-03T02:32:01;7.97;;;5.55;;
23078;SDS011;11707;50.830;4.364;2023-04-03T02:34:27;9.48;;;5.25;;
23078;SDS011;11707;50.830;4.364;2023-04-03T02:36:53;11.30;;;6.20;;
23078;SDS011;11707;50.830;4.364;2023-04-03T02:39:20;6.50;;;5.10;;
23078;SDS011;11707;50.830;4.364;2023-04-03T02:41:49;6.57;;;5.18;;
23078;SDS011;11707;50.830;4.364;2023-04-03T02:44:15;10.25;;;5.68;;
23078;SDS011;11707;50.830;4.364;2023-04-03T02:46:41;9.20;;;5.50;;
23078;SDS011;11707;50.830;4.364;2023-04-03T02:49:07;6.63;;;5.07;;
23078;SDS011;11707;50.830;4.364;2023-04-03T02:51:32;6.72;;;5.18;;
23078;SDS011;11707;50.830;4.364;2023-04-03T02:53:58;8.60;;;6.22;;
23078;SDS011;11707;50.830;4.364;2023-04-03T02:56:24;11.93;;;6.28;;
23078;SDS011;11707;50.830;4.364;2023-04-03T02:58:51;7.35;;;5.50;;
23078;SDS011;11707;50.830;4.364;2023-04-03T03:01:18;6.47;;;5.43;;
23078;SDS011;11707;50.830;4.364;2023-04-03T03:03:43;11.73;;;5.90;;
23078;SDS011;11707;50.830;4.364;2023-04-03T03:06:12;10.35;;;5.50;;
23078;SDS011;11707;50.830;4.364;2023-04-03T03:08:40;10.07;;;6.20;;
23078;SDS011;11707;50.830;4.364;2023-04-03T03:11:06;7.20;;;5.22;;
23078;SDS011;11707;50.830;4.364;2023-04-03T03:13:32;8.15;;;5.13;;
23078;SDS011;11707;50.830;4.364;2023-04-03T03:15:59;10.38;;;6.18;;
23078;SDS011;11707;50.830;4.364;2023-04-03T03:18:28;8.73;;;5.72;;
23078;SDS011;11707;50.830;4.364;2023-04-03T03:20:55;8.35;;;5.57;;
23078;SDS011;11707;50.830;4.364;2023-04-03T03:23:23;12.85;;;6.05;;
23078;SDS011;11707;50.830;4.364;2023-04-03T03:25:54;9.80;;;5.68;;
23078;SDS011;11707;50.830;4.364;2023-04-03T03:28:24;7.78;;;4.70;;
23078;SDS011;11707;50.830;4.364;2023-04-03T03:30:53;8.18;;;5.28;;
23078;SDS011;11707;50.830;4.364;2023-04-03T03:33:18;7.38;;;5.63;;
23078;SDS011;11707;50.830;4.364;2023-04-03T03:35:52;9.93;;;5.32;;
23078;SDS011;11707;50.830;4.364;2023-04-03T03:38:21;9.20;;;5.55;;
23078;SDS011;11707;50.830;4.364;2023-04-03T03:40:48;9.25;;;6.15;;
23078;SDS011;11707;50.830;4.364;2023-04-03T03:43:15;10.00;;;4.78;;
23078;SDS011;11707;50.830;4.364;2023-04-03T03:45:44;6.97;;;5.20;;
23078;SDS011;11707;50.830;4.364;2023-04-03T03:48:11;7.82;;;5.45;;
23078;SDS011;11707;50.830;4.364;2023-04-03T03:50:39;11.27;;;6.00;;
23078;SDS011;11707;50.830;4.364;2023-04-03T03:53:05;9.00;;;5.38;;
23078;SDS011;11707;50.830;4.364;2023-04-03T03:55:30;7.15;;;5.45;;
23078;SDS011;11707;50.830;4.364;2023-04-03T03:57:56;11.40;;;5.93;;
23078;SDS011;11707;50.830;4.364;2023-04-03T04:00:22;8.60;;;5.30;;
23078;SDS011;11707;50.830;4.364;2023-04-03T04:02:50;9.80;;;5.88;;
23078;SDS011;11707;50.830;4.364;2023-04-03T04:05:19;10.85;;;5.53;;
23078;SDS011;11707;50.830;4.364;2023-04-03T04:07:47;7.35;;;5.65;;
23078;SDS011;11707;50.830;4.364;2023-04-03T04:10:13;11.60;;;5.75;;
23078;SDS011;11707;50.830;4.364;2023-04-03T04:12:39;8.02;;;5.65;;
23078;SDS011;11707;50.830;4.364;2023-04-03T04:15:05;7.70;;;5.03;;
23078;SDS011;11707;50.830;4.364;2023-04-03T04:17:32;13.25;;;5.82;;
23078;SDS011;11707;50.830;4.364;2023-04-03T04:19:59;11.45;;;7.13;;
23078;SDS011;11707;50.830;4.364;2023-04-03T04:22:25;8.57;;;6.20;;
23078;SDS011;11707;50.830;4.364;2023-04-03T04:24:53;10.48;;;6.75;;
23078;SDS011;11707;50.830;4.364;2023-04-03T04:27:18;10.30;;;6.10;;
23078;SDS011;11707;50.830;4.364;2023-04-03T04:29:47;8.18;;;5.88;;
23078;SDS011;11707;50.830;4.364;2023-04-03T04:32:15;9.18;;;6.00;;
23078;SDS011;11707;50.830;4.364;2023-04-03T04:34:44;12.02;;;6.45;;
23078;SDS011;11707;50.830;4.364;2023-04-03T04:37:12;8.23;;;6.30;;
23078;SDS011;11707;50.830;4.364;2023-04-03T04:39:40;10.43;;;6.38;;
23078;SDS011;11707;50.830;4.364;2023-04-03T04:42:06;10.05;;;6.40;;
23078;SDS011;11707;50.830;4.364;2023-04-03T04:44:37;10.32;;;6.60;;
23078;SDS011;11707;50.830;4.364;2023-04-03T04:47:08;9.50;;;7.20;;
23078;SDS011;11707;50.830;4.364;2023-04-03T04:49:34;10.15;;;7.00;;
23078;SDS011;11707;50.830;4.364;2023-04-03T04:52:00;10.88;;;6.97;;
23078;SDS011;11707;50.830;4.364;2023-04-03T04:54:27;14.63;;;7.40;;
23078;SDS011;11707;50.830;4.364;2023-04-03T04:56:53;8.52;;;6.93;;
23078;SDS011;11707;50.830;4.364;2023-04-03T04:59:19;9.45;;;7.32;;
23078;SDS011;11707;50.830;4.364;2023-04-03T05:01:45;17.15;;;9.18;;
23078;SDS011;11707;50.830;4.364;2023-04-03T05:04:11;8.98;;;6.85;;
23078;SDS011;11707;50.830;4.364;2023-04-03T05:06:38;13.93;;;7.35;;
23078;SDS011;11707;50.830;4.364;2023-04-03T05:09:03;10.10;;;7.50;;
23078;SDS011;11707;50.830;4.364;2023-04-03T05:11:32;12.32;;;7.78;;
23078;SDS011;11707;50.830;4.364;2023-04-03T05:13:58;15.25;;;7.60;;
23078;SDS011;11707;50.830;4.364;2023-04-03T05:16:23;9.80;;;7.63;;
23078;SDS011;11707;50.830;4.364;2023-04-03T05:18:50;8.93;;;6.93;;
23078;SDS011;11707;50.830;4.364;2023-04-03T05:21:16;12.60;;;7.43;;
23078;SDS011;11707;50.830;4.364;2023-04-03T05:23:43;11.27;;;8.00;;
23078;SDS011;11707;50.830;4.364;2023-04-03T05:26:09;12.75;;;7.68;;
23078;SDS011;11707;50.830;4.364;2023-04-03T05:28:37;8.63;;;7.68;;
23078;SDS011;11707;50.830;4.364;2023-04-03T05:31:03;10.23;;;7.65;;
23078;SDS011;11707;50.830;4.364;2023-04-03T05:33:29;11.73;;;8.07;;
23078;SDS011;11707;50.830;4.364;2023-04-03T05:35:54;12.20;;;8.60;;
23078;SDS011;11707;50.830;4.364;2023-04-03T05:38:20;10.27;;;8.00;;
23078;SDS011;11707;50.830;4.364;2023-04-03T05:40:46;12.15;;;7.93;;
23078;SDS011;11707;50.830;4.364;2023-04-03T05:43:11;10.38;;;7.35;;
23078;SDS011;11707;50.830;4.364;2023-04-03T05:45:37;14.82;;;8.07;;
23078;SDS011;11707;50.830;4.364;2023-04-03T05:48:03;10.68;;;7.95;;
23078;SDS011;11707;50.830;4.364;2023-04-03T05:50:34;10.20;;;7.97;;
23078;SDS011;11707;50.830;4.364;2023-04-03T05:53:02;13.77;;;8.18;;
23078;SDS011;11707;50.830;4.364;2023-04-03T05:55:28;12.98;;;7.90;;
23078;SDS011;11707;50.830;4.364;2023-04-03T05:57:54;14.18;;;7.93;;
23078;SDS011;11707;50.830;4.364;2023-04-03T06:00:20;13.70;;;8.82;;
23078;SDS011;11707;50.830;4.364;2023-04-03T06:02:46;11.57;;;8.10;;
23078;SDS011;11707;50.830;4.364;2023-04-03T06:05:14;11.43;;;8.07;;
23078;SDS011;11707;50.830;4.364;2023-04-03T06:07:44;13.18;;;8.38;;
23078;SDS011;11707;50.830;4.364;2023-04-03T06:10:11;9.93;;;7.60;;
23078;SDS011;11707;50.830;4.364;2023-04-03T06:12:38;11.10;;;7.82;;
23078;SDS011;11707;50.830;4.364;2023-04-03T06:15:04;13.02;;;8.15;;
23078;SDS011;11707;50.830;4.364;2023-04-03T06:17:33;11.80;;;7.97;;
23078;SDS011;11707;50.830;4.364;2023-04-03T06:20:01;23.38;;;9.02;;
23078;SDS011;11707;50.830;4.364;2023-04-03T06:22:27;15.40;;;7.50;;
23078;SDS011;11707;50.830;4.364;2023-04-03T06:24:54;12.63;;;8.55;;
23078;SDS011;11707;50.830;4.364;2023-04-03T06:27:20;13.60;;;9.00;;
23078;SDS011;11707;50.830;4.364;2023-04-03T06:29:46;13.65;;;7.75;;
23078;SDS011;11707;50.830;4.364;2023-04-03T06:32:13;10.38;;;7.68;;
23078;SDS011;11707;50.830;4.364;2023-04-03T06:34:40;11.27;;;7.90;;
23078;SDS011;11707;50.830;4.364;2023-04-03T06:37:20;10.48;;;8.00;;
23078;SDS011;11707;50.830;4.364;2023-04-03T06:39:47;11.02;;;7.80;;
23078;SDS011;11707;50.830;4.364;2023-04-03T06:42:13;12.00;;;7.85;;
23078;SDS011;11707;50.830;4.364;2023-04-03T06:44:39;9.95;;;7.20;;
23078;SDS011;11707;50.830;4.364;2023-04-03T06:47:08;14.15;;;8.10;;
23078;SDS011;11707;50.830;4.364;2023-04-03T06:49:37;16.15;;;8.70;;
23078;SDS011;11707;50.830;4.364;2023-04-03T06:52:03;12.38;;;8.52;;
23078;SDS011;11707;50.830;4.364;2023-04-03T06:54:30;14.15;;;8.43;;
23078;SDS011;11707;50.830;4.364;2023-04-03T06:56:56;14.05;;;9.20;;
23078;SDS011;11707;50.830;4.364;2023-04-03T06:59:22;15.38;;;8.30;;
23078;SDS011;11707;50.830;4.364;2023-04-03T07:01:48;12.77;;;8.48;;
23078;SDS011;11707;50.830;4.364;2023-04-03T07:04:18;14.13;;;8.55;;
23078;SDS011;11707;50.830;4.364;2023-04-03T07:06:50;16.42;;;8.85;;
23078;SDS011;11707;50.830;4.364;2023-04-03T07:09:17;16.42;;;9.13;;
23078;SDS011;11707;50.830;4.364;2023-04-03T07:11:46;12.55;;;9.07;;
23078;SDS011;11707;50.830;4.364;2023-04-03T07:14:14;16.33;;;9.02;;
23078;SDS011;11707;50.830;4.364;2023-04-03T07:16:40;12.40;;;8.18;;
23078;SDS011;11707;50.830;4.364;2023-04-03T07:19:05;10.43;;;7.78;;
23078;SDS011;11707;50.830;4.364;2023-04-03T07:21:33;16.98;;;8.93;;
23078;SDS011;11707;50.830;4.364;2023-04-03T07:24:01;10.95;;;8.00;;
23078;SDS011;11707;50.830;4.364;2023-04-03T07:26:27;14.50;;;8.50;;
23078;SDS011;11707;50.830;4.364;2023-04-03T07:28:55;9.60;;;8.00;;
23078;SDS011;11707;50.830;4.364;2023-04-03T07:31:21;15.45;;;9.25;;
23078;SDS011;11707;50.830;4.364;2023-04-03T07:33:49;9.70;;;7.55;;
23078;SDS011;11707;50.830;4.364;2023-04-03T07:36:16;10.27;;;7.07;;
23078;SDS011;11707;50.830;4.364;2023-04-03T07:38:44;11.57;;;7.10;;
23078;SDS011;11707;50.830;4.364;2023-04-03T07:41:14;9.27;;;7.82;;
23078;SDS011;11707;50.830;4.364;2023-04-03T07:43:42;9.15;;;6.75;;
23078;SDS011;11707;50.830;4.364;2023-04-03T07:46:12;10.50;;;7.25;;
23078;SDS011;11707;50.830;4.364;2023-04-03T07:48:38;11.75;;;7.35;;
23078;SDS011;11707;50.830;4.364;2023-04-03T07:51:04;13.02;;;7.20;;
23078;SDS011;11707;50.830;4.364;2023-04-03T07:53:30;11.68;;;7.40;;
23078;SDS011;11707;50.830;4.364;2023-04-03T07:55:59;13.10;;;6.75;;
23078;SDS011;11707;50.830;4.364;2023-04-03T07:58:25;11.23;;;7.25;;
23078;SDS011;11707;50.830;4.364;2023-04-03T08:00:55;11.43;;;6.43;;
23078;SDS011;11707;50.830;4.364;2023-04-03T08:03:24;11.57;;;7.68;;
23078;SDS011;11707;50.830;4.364;2023-04-03T08:05:50;11.60;;;6.65;;
23078;SDS011;11707;50.830;4.364;2023-04-03T08:08:20;10.23;;;7.75;;
23078;SDS011;11707;50.830;4.364;2023-04-03T08:10:50;7.93;;;5.97;;
23078;SDS011;11707;50.830;4.364;2023-04-03T08:13:20;9.15;;;6.47;;
23078;SDS011;11707;50.830;4.364;2023-04-03T08:15:46;11.48;;;7.10;;
23078;SDS011;11707;50.830;4.364;2023-04-03T08:18:15;9.70;;;6.28;;
23078;SDS011;11707;50.830;4.364;2023-04-03T08:20:41;9.10;;;6.82;;
23078;SDS011;11707;50.830;4.364;2023-04-03T08:23:07;9.68;;;6.88;;
23078;SDS011;11707;50.830;4.364;2023-04-03T08:25:37;10.73;;;6.55;;
23078;SDS011;11707;50.830;4.364;2023-04-03T08:28:08;11.98;;;6.80;;
23078;SDS011;11707;50.830;4.364;2023-04-03T08:30:39;9.40;;;5.97;;
23078;SDS011;11707;50.830;4.364;2023-04-03T08:33:07;9.23;;;5.57;;
23078;SDS011;11707;50.830;4.364;2023-04-03T08:35:33;8.57;;;6.55;;
23078;SDS011;11707;50.830;4.364;2023-04-03T08:38:02;11.13;;;7.57;;
23078;SDS011;11707;50.830;4.364;2023-04-03T08:40:28;8.05;;;6.15;;
23078;SDS011;11707;50.830;4.364;2023-04-03T08:48:20;6.10;;;5.50;;
23078;SDS011;11707;50.830;4.364;2023-04-03T08:50:59;9.43;;;5.88;;
23078;SDS011;11707;50.830;4.364;2023-04-03T08:53:30;8.73;;;5.95;;
23078;SDS011;11707;50.830;4.364;2023-04-03T08:56:04;7.53;;;4.97;;
23078;SDS011;11707;50.830;4.364;2023-04-03T09:01:19;8.07;;;4.53;;
23078;SDS011;11707;50.830;4.364;2023-04-03T09:03:54;8.77;;;4.90;;
23078;SDS011;11707;50.830;4.364;2023-04-03T09:06:26;7.70;;;4.70;;
23078;SDS011;11707;50.830;4.364;2023-04-03T09:09:02;7.18;;;4.35;;
23078;SDS011;11707;50.830;4.364;2023-04-03T09:14:46;6.88;;;4.30;;
23078;SDS011;11707;50.830;4.364;2023-04-03T09:19:51;5.90;;;3.88;;
23078;SDS011;11707;50.830;4.364;2023-04-03T09:22:23;12.02;;;4.25;;
23078;SDS011;11707;50.830;4.364;2023-04-03T09:24:55;7.13;;;3.95;;
23078;SDS011;11707;50.830;4.364;2023-04-03T09:27:30;5.65;;;2.95;;
23078;SDS011;11707;50.830;4.364;2023-04-03T09:29:56;6.10;;;3.10;;
23078;SDS011;11707;50.830;4.364;2023-04-03T09:32:32;5.03;;;3.17;;
23078;SDS011;11707;50.830;4.364;2023-04-03T09:35:03;7.78;;;4.15;;
23078;SDS011;11707;50.830;4.364;2023-04-03T09:37:41;6.18;;;3.00;;
23078;SDS011;11707;50.830;4.364;2023-04-03T09:45:46;6.05;;;2.75;;
23078;SDS011;11707;50.830;4.364;2023-04-03T09:48:18;6.32;;;2.83;;
23078;SDS011;11707;50.830;4.364;2023-04-03T09:58:40;7.95;;;3.10;;
23078;SDS011;11707;50.830;4.364;2023-04-03T10:06:40;7.20;;;2.22;;
23078;SDS011;11707;50.830;4.364;2023-04-03T10:11:57;6.63;;;2.50;;
23078;SDS011;11707;50.830;4.364;2023-04-03T10:14:30;11.02;;;2.78;;
23078;SDS011;11707;50.830;4.364;2023-04-03T10:28:01;4.38;;;1.90;;
23078;SDS011;11707;50.830;4.364;2023-04-03T10:33:34;4.70;;;2.08;;
23078;SDS011;11707;50.830;4.364;2023-04-03T10:36:12;4.63;;;2.20;;
23078;SDS011;11707;50.830;4.364;2023-04-03T10:39:05;4.88;;;2.30;;
23078;SDS011;11707;50.830;4.364;2023-04-03T10:42:00;4.85;;;2.20;;
23078;SDS011;11707;50.830;4.364;2023-04-03T10:50:23;4.70;;;2.35;;
23078;SDS011;11707;50.830;4.364;2023-04-03T10:56:09;4.82;;;2.30;;
23078;SDS011;11707;50.830;4.364;2023-04-03T11:02:16;4.30;;;2.20;;
23078;SDS011;11707;50.830;4.364;2023-04-03T11:04:59;4.35;;;1.80;;
23078;SDS011;11707;50.830;4.364;2023-04-03T11:07:32;3.33;;;1.73;;
23078;SDS011;11707;50.830;4.364;2023-04-03T11:10:14;2.42;;;1.80;;
23078;SDS011;11707;50.830;4.364;2023-04-03T11:12:52;8.32;;;1.77;;
23078;SDS011;11707;50.830;4.364;2023-04-03T11:15:23;4.05;;;1.75;;
23078;SDS011;11707;50.830;4.364;2023-04-03T11:17:58;4.30;;;1.70;;
23078;SDS011;11707;50.830;4.364;2023-04-03T11:20:40;3.28;;;1.55;;
23078;SDS011;11707;50.830;4.364;2023-04-03T11:23:24;3.15;;;1.52;;
23078;SDS011;11707;50.830;4.364;2023-04-03T11:25:54;4.53;;;1.77;;
23078;SDS011;11707;50.830;4.364;2023-04-03T11:28:24;4.43;;;1.02;;
23078;SDS011;11707;50.830;4.364;2023-04-03T11:36:39;8.23;;;2.00;;
23078;SDS011;11707;50.830;4.364;2023-04-03T11:39:20;8.52;;;2.30;;
23078;SDS011;11707;50.830;4.364;2023-04-03T11:41:52;5.82;;;1.60;;
23078;SDS011;11707;50.830;4.364;2023-04-03T11:44:29;6.80;;;1.88;;
23078;SDS011;11707;50.830;4.364;2023-04-03T11:47:02;4.63;;;1.30;;
23078;SDS011;11707;50.830;4.364;2023-04-03T12:13:39;3.97;;;1.63;;
23078;SDS011;11707;50.830;4.364;2023-04-03T12:16:28;6.22;;;1.30;;
23078;SDS011;11707;50.830;4.364;2023-04-03T12:32:22;4.78;;;1.20;;
23078;SDS011;11707;50.830;4.364;2023-04-03T12:43:34;8.02;;;1.63;;
23078;SDS011;11707;50.830;4.364;2023-04-03T12:46:21;3.75;;;1.70;;
23078;SDS011;11707;50.830;4.364;2023-04-03T12:48:52;3.88;;;1.52;;
23078;SDS011;11707;50.830;4.364;2023-04-03T12:54:13;5.28;;;1.60;;
23078;SDS011;11707;50.830;4.364;2023-04-03T12:56:43;2.70;;;1.20;;
23078;SDS011;11707;50.830;4.364;2023-04-03T13:01:57;3.65;;;1.55;;
23078;SDS011;11707;50.830;4.364;2023-04-03T13:04:24;6.95;;;1.42;;
23078;SDS011;11707;50.830;4.364;2023-04-03T13:06:51;4.32;;;1.42;;
23078;SDS011;11707;50.830;4.364;2023-04-03T13:09:20;3.15;;;1.75;;
23078;SDS011;11707;50.830;4.364;2023-04-03T13:11:54;4.18;;;1.45;;
23078;SDS011;11707;50.830;4.364;2023-04-03T13:14:35;3.70;;;1.25;;
23078;SDS011;11707;50.830;4.364;2023-04-03T13:17:06;2.55;;;1.27;;
23078;SDS011;11707;50.830;4.364;2023-04-03T13:19:38;4.50;;;1.45;;
23078;SDS011;11707;50.830;4.364;2023-04-03T13:25:09;4.18;;;1.20;;
23078;SDS011;11707;50.830;4.364;2023-04-03T13:27:38;4.22;;;1.23;;
23078;SDS011;11707;50.830;4.364;2023-04-03T13:30:17;4.28;;;1.25;;
23078;SDS011;11707;50.830;4.364;2023-04-03T13:33:06;2.95;;;1.25;;
23078;SDS011;11707;50.830;4.364;2023-04-03T13:35:45;2.80;;;1.10;;
23078;SDS011;11707;50.830;4.364;2023-04-03T13:41:29;6.22;;;1.13;;
23078;SDS011;11707;50.830;4.364;2023-04-03T13:43:56;2.20;;;0.93;;
23078;SDS011;11707;50.830;4.364;2023-04-03T13:46:23;3.92;;;1.10;;
23078;SDS011;11707;50.830;4.364;2023-04-03T13:48:53;2.85;;;1.08;;
23078;SDS011;11707;50.830;4.364;2023-04-03T13:51:21;3.67;;;1.40;;
23078;SDS011;11707;50.830;4.364;2023-04-03T13:54:10;4.38;;;1.42;;
23078;SDS011;11707;50.830;4.364;2023-04-03T13:56:43;3.75;;;1.25;;
23078;SDS011;11707;50.830;4.364;2023-04-03T14:01:55;3.03;;;1.27;;
23078;SDS011;11707;50.830;4.364;2023-04-03T14:07:01;3.97;;;1.50;;
23078;SDS011;11707;50.830;4.364;2023-04-03T14:09:28;4.68;;;1.58;;
23078;SDS011;11707;50.830;4.364;2023-04-03T14:12:00;3.63;;;1.30;;
23078;SDS011;11707;50.830;4.364;2023-04-03T14:14:33;2.88;;;1.02;;
23078;SDS011;11707;50.830;4.364;2023-04-03T14:17:05;2.78;;;1.25;;
23078;SDS011;11707;50.830;4.364;2023-04-03T14:19:40;4.05;;;1.45;;
23078;SDS011;11707;50.830;4.364;2023-04-03T14:22:13;3.75;;;1.25;;
23078;SDS011;11707;50.830;4.364;2023-04-03T14:24:46;9.57;;;1.75;;
23078;SDS011;11707;50.830;4.364;2023-04-03T14:27:20;3.40;;;1.25;;
23078;SDS011;11707;50.830;4.364;2023-04-03T14:29:48;4.35;;;1.92;;
23078;SDS011;11707;50.830;4.364;2023-04-03T14:32:18;4.05;;;1.90;;
23078;SDS011;11707;50.830;4.364;2023-04-03T14:34:45;6.47;;;1.67;;
23078;SDS011;11707;50.830;4.364;2023-04-03T14:37:15;2.92;;;1.20;;
23078;SDS011;11707;50.830;4.364;2023-04-03T14:39:43;5.28;;;1.60;;
23078;SDS011;11707;50.830;4.364;2023-04-03T14:42:15;7.75;;;1.35;;
23078;SDS011;11707;50.830;4.364;2023-04-03T14:44:46;3.45;;;1.48;;
23078;SDS011;11707;50.830;4.364;2023-04-03T14:47:12;3.28;;;1.30;;
23078;SDS011;11707;50.830;4.364;2023-04-03T14:49:40;5.70;;;1.40;;
23078;SDS011;11707;50.830;4.364;2023-04-03T14:52:30;5.97;;;1.40;;
23078;SDS011;11707;50.830;4.364;2023-04-03T14:54:58;3.00;;;1.02;;
23078;SDS011;11707;50.830;4.364;2023-04-03T14:57:25;5.15;;;1.30;;
23078;SDS011;11707;50.830;4.364;2023-04-03T14:59:53;4.57;;;1.23;;
23078;SDS011;11707;50.830;4.364;2023-04-03T15:02:30;5.82;;;1.70;;
23078;SDS011;11707;50.830;4.364;2023-04-03T15:04:58;2.90;;;1.27;;
23078;SDS011;11707;50.830;4.364;2023-04-03T15:07:27;3.45;;;1.00;;
23078;SDS011;11707;50.830;4.364;2023-04-03T15:10:00;3.50;;;1.52;;
23078;SDS011;11707;50.830;4.364;2023-04-03T15:12:31;3.38;;;1.20;;
23078;SDS011;11707;50.830;4.364;2023-04-03T15:14:57;2.30;;;0.82;;
23078;SDS011;11707;50.830;4.364;2023-04-03T15:17:23;2.33;;;1.00;;
23078;SDS011;11707;50.830;4.364;2023-04-03T15:19:48;3.13;;;1.10;;
23078;SDS011;11707;50.830;4.364;2023-04-03T15:22:15;2.15;;;1.20;;
23078;SDS011;11707;50.830;4.364;2023-04-03T15:24:43;3.97;;;1.38;;
23078;SDS011;11707;50.830;4.364;2023-04-03T15:27:09;6.55;;;1.38;;
23078;SDS011;11707;50.830;4.364;2023-04-03T15:29:36;3.22;;;1.15;;
23078;SDS011;11707;50.830;4.364;2023-04-03T15:32:03;2.22;;;1.30;;
23078;SDS011;11707;50.830;4.364;2023-04-03T15:34:29;4.50;;;1.25;;
23078;SDS011;11707;50.830;4.364;2023-04-03T15:36:57;2.60;;;1.23;;
23078;SDS011;11707;50.830;4.364;2023-04-03T15:39:24;5.40;;;1.88;;
23078;SDS011;11707;50.830;4.364;2023-04-03T15:41:53;3.75;;;1.33;;
23078;SDS011;11707;50.830;4.364;2023-04-03T15:44:19;3.50;;;1.25;;
23078;SDS011;11707;50.830;4.364;2023-04-03T15:46:45;6.03;;;1.75;;
23078;SDS011;11707;50.830;4.364;2023-04-03T15:49:18;3.72;;;1.40;;
23078;SDS011;11707;50.830;4.364;2023-04-03T15:51:45;2.33;;;1.30;;
23078;SDS011;11707;50.830;4.364;2023-04-03T15:54:11;3.65;;;1.55;;
23078;SDS011;11707;50.830;4.364;2023-04-03T15:56:37;5.70;;;1.70;;
23078;SDS011;11707;50.830;4.364;2023-04-03T15:59:02;2.38;;;1.25;;
23078;SDS011;11707;50.830;4.364;2023-04-03T16:01:28;4.82;;;1.35;;
23078;SDS011;11707;50.830;4.364;2023-04-03T16:03:54;7.47;;;3.97;;
23078;SDS011;11707;50.830;4.364;2023-04-03T16:06:20;4.22;;;1.80;;
23078;SDS011;11707;50.830;4.364;2023-04-03T16:08:46;5.13;;;1.77;;
23078;SDS011;11707;50.830;4.364;2023-04-03T16:11:16;5.50;;;1.80;;
23078;SDS011;11707;50.830;4.364;2023-04-03T16:13:41;6.72;;;1.65;;
23078;SDS011;11707;50.830;4.364;2023-04-03T16:16:07;5.07;;;1.85;;
23078;SDS011;11707;50.830;4.364;2023-04-03T16:18:34;5.28;;;1.75;;
23078;SDS011;11707;50.830;4.364;2023-04-03T16:21:00;3.28;;;1.75;;
23078;SDS011;11707;50.830;4.364;2023-04-03T16:23:27;3.45;;;1.65;;
23078;SDS011;11707;50.830;4.364;2023-04-03T16:25:52;4.70;;;1.73;;
23078;SDS011;11707;50.830;4.364;2023-04-03T16:28:19;7.85;;;2.20;;
23078;SDS011;11707;50.830;4.364;2023-04-03T16:30:47;3.25;;;1.52;;
23078;SDS011;11707;50.830;4.364;2023-04-03T16:33:15;4.10;;;1.70;;
23078;SDS011;11707;50.830;4.364;2023-04-03T16:35:46;8.23;;;2.00;;
23078;SDS011;11707;50.830;4.364;2023-04-03T16:38:15;4.32;;;2.03;;
23078;SDS011;11707;50.830;4.364;2023-04-03T16:40:40;5.07;;;2.35;;
23078;SDS011;11707;50.830;4.364;2023-04-03T16:43:09;4.05;;;1.73;;
23078;SDS011;11707;50.830;4.364;2023-04-03T16:45:35;6.18;;;2.17;;
23078;SDS011;11707;50.830;4.364;2023-04-03T16:48:01;4.38;;;1.98;;
23078;SDS011;11707;50.830;4.364;2023-04-03T16:50:26;7.20;;;2.00;;
23078;SDS011;11707;50.830;4.364;2023-04-03T16:52:55;3.50;;;1.77;;
23078;SDS011;11707;50.830;4.364;2023-04-03T16:55:20;4.18;;;1.80;;
23078;SDS011;11707;50.830;4.364;2023-04-03T16:57:46;4.50;;;2.08;;
23078;SDS011;11707;50.830;4.364;2023-04-03T17:00:12;4.53;;;2.13;;
23078;SDS011;11707;50.830;4.364;2023-04-03T17:02:39;3.67;;;2.00;;
23078;SDS011;11707;50.830;4.364;2023-04-03T17:05:06;6.85;;;1.90;;
23078;SDS011;11707;50.830;4.364;2023-04-03T17:07:32;7.43;;;2.17;;
23078;SDS011;11707;50.830;4.364;2023-04-03T17:09:58;5.05;;;1.98;;